createdAt,value
2019-04-05T00:00:55.970Z,89.10
2019-04-05T00:03:21.381Z,89.00
2019-04-05T00:05:46.742Z,88.90
2019-04-05T00:08:12.194Z,89.70
2019-04-05T00:10:37.582Z,89.80
2019-04-05T00:13:03.033Z,89.90
2019-04-05T00:15:28.413Z,89.90
2019-04-05T00:17:53.770Z,90.00
2019-04-05T00:20:19.118Z,90.40
2019-04-05T00:22:44.531Z,90.20
2019-04-05T00:25:10.065Z,90.30
2019-04-05T00:27:35.518Z,90.10
2019-04-05T00:30:00.884Z,90.80
2019-04-05T00:32:26.247Z,90.40
2019-04-05T00:34:51.681Z,90.60
2019-04-05T00:37:17.032Z,90.80
2019-04-05T00:39:42.390Z,90.30
2019-04-05T00:42:07.761Z,90.50
2019-04-05T00:44:33.125Z,90.40
2019-04-05T00:46:58.588Z,90.90
2019-04-05T00:49:23.950Z,91.30
2019-04-05T00:51:49.312Z,91.10
2019-04-05T00:54:14.685Z,91.10
2019-04-05T00:56:40.038Z,91.50
2019-04-05T00:59:05.534Z,91.50
2019-04-05T01:01:31.898Z,91.40
2019-04-05T01:03:57.319Z,91.60
2019-04-05T01:06:22.738Z,91.60
2019-04-05T01:08:48.299Z,91.30
2019-04-05T01:11:13.705Z,91.30
2019-04-05T01:13:39.249Z,91.40
2019-04-05T01:16:04.607Z,91.30
2019-04-05T01:18:30.052Z,91.50
2019-04-05T01:20:56.900Z,91.10
2019-04-05T01:23:22.366Z,91.90
2019-04-05T01:25:47.721Z,91.40
2019-04-05T01:28:13.160Z,92.00
2019-04-05T01:30:38.613Z,91.90
2019-04-05T01:33:04.000Z,91.70
2019-04-05T01:35:29.374Z,91.80
2019-04-05T01:37:55.425Z,92.00
2019-04-05T01:40:20.807Z,91.80
2019-04-05T01:42:47.164Z,91.90
2019-04-05T01:45:13.723Z,92.50
2019-04-05T01:47:39.178Z,92.10
2019-04-05T01:50:05.537Z,92.00
2019-04-05T01:52:31.310Z,92.00
2019-04-05T01:54:56.667Z,92.00
2019-04-05T01:57:22.426Z,92.00
2019-04-05T01:59:47.766Z,92.00
2019-04-05T02:02:13.123Z,92.10
2019-04-05T02:04:38.521Z,91.80
2019-04-05T02:07:03.887Z,91.90
2019-04-05T02:09:29.273Z,91.80
2019-04-05T02:11:54.618Z,92.10
2019-04-05T02:14:20.085Z,92.00
2019-04-05T02:16:45.437Z,92.00
2019-04-05T02:19:10.775Z,92.20
2019-04-05T02:21:36.194Z,92.30
2019-04-05T02:24:01.658Z,92.10
2019-04-05T02:26:27.135Z,92.20
2019-04-05T02:28:52.574Z,92.00
2019-04-05T02:31:18.039Z,92.50
2019-04-05T02:33:43.462Z,92.50
2019-04-05T02:36:08.875Z,92.20
2019-04-05T02:38:34.249Z,92.40
2019-04-05T02:41:01.205Z,92.30
2019-04-05T02:43:29.538Z,92.40
2019-04-05T02:45:57.447Z,92.20
2019-04-05T02:48:24.357Z,92.40
2019-04-05T02:50:52.885Z,92.20
2019-04-05T02:53:20.021Z,92.20
2019-04-05T02:55:45.575Z,92.40
2019-04-05T02:58:13.147Z,92.10
2019-04-05T03:00:38.625Z,92.40
2019-04-05T03:03:06.035Z,92.30
2019-04-05T03:05:32.007Z,92.20
2019-04-05T03:07:58.082Z,92.40
2019-04-05T03:11:00.182Z,92.50
2019-04-05T03:13:26.888Z,92.30
2019-04-05T03:15:54.199Z,92.50
2019-04-05T03:18:20.201Z,92.60
2019-04-05T03:20:45.551Z,92.60
2019-04-05T03:23:11.507Z,92.60
2019-04-05T03:25:37.365Z,92.80
2019-04-05T03:28:03.414Z,92.80
2019-04-05T03:30:28.985Z,92.70
2019-04-05T03:32:54.437Z,92.90
2019-04-05T03:35:19.890Z,92.90
2019-04-05T03:37:46.461Z,92.80
2019-04-05T03:40:11.913Z,92.70
2019-04-05T03:42:37.290Z,92.90
2019-04-05T03:45:02.650Z,92.90
2019-04-05T03:47:28.011Z,92.90
2019-04-05T03:49:53.383Z,93.20
2019-04-05T03:52:18.730Z,93.00
2019-04-05T03:54:44.109Z,93.00
2019-04-05T03:57:11.037Z,93.20
2019-04-05T03:59:36.623Z,93.50
2019-04-05T04:02:02.073Z,93.30
2019-04-05T04:04:27.522Z,93.20
2019-04-05T04:06:53.026Z,93.30
2019-04-05T04:09:18.830Z,93.60
2019-04-05T04:11:44.446Z,93.30
2019-04-05T04:14:11.521Z,93.50
2019-04-05T04:16:37.369Z,93.30
2019-04-05T04:19:02.740Z,93.40
2019-04-05T04:21:38.554Z,93.40
2019-04-05T04:24:05.051Z,93.20
2019-04-05T04:26:31.303Z,93.20
2019-04-05T04:28:57.650Z,93.20
2019-04-05T04:31:23.414Z,93.50
2019-04-05T04:33:48.890Z,93.70
2019-04-05T04:36:14.286Z,94.10
2019-04-05T04:38:39.618Z,94.00
2019-04-05T04:41:05.571Z,93.40
2019-04-05T04:43:31.249Z,93.50
2019-04-05T04:45:56.700Z,93.70
2019-04-05T04:48:22.093Z,93.80
2019-04-05T04:50:48.150Z,94.10
2019-04-05T04:53:13.794Z,94.10
2019-04-05T04:55:39.183Z,94.10
2019-04-05T04:58:05.021Z,94.40
2019-04-05T05:00:30.493Z,94.00
2019-04-05T05:02:55.942Z,94.10
2019-04-05T05:05:21.806Z,94.00
2019-04-05T05:07:48.100Z,94.60
2019-04-05T05:10:14.070Z,94.30
2019-04-05T05:12:39.855Z,93.90
2019-04-05T05:15:05.621Z,94.50
2019-04-05T05:17:38.343Z,94.20
2019-04-05T05:19:58.473Z,94.00
2019-04-05T05:22:24.326Z,94.50
2019-04-05T05:24:49.815Z,94.30
2019-04-05T05:27:15.270Z,94.00
2019-04-05T05:29:40.897Z,94.00
2019-04-05T05:32:09.664Z,94.20
2019-04-05T05:34:34.870Z,94.40
2019-04-05T05:37:00.314Z,94.30
2019-04-05T05:39:25.797Z,93.70
2019-04-05T05:41:51.278Z,94.00
2019-04-05T05:44:16.623Z,94.00
2019-04-05T05:46:41.991Z,94.00
2019-04-05T05:49:07.335Z,93.50
2019-04-05T05:51:33.098Z,93.30
2019-04-05T05:53:58.466Z,93.10
2019-04-05T05:56:23.818Z,93.10
2019-04-05T05:58:49.205Z,93.10
2019-04-05T06:01:14.594Z,92.70
2019-04-05T06:03:39.991Z,92.40
2019-04-05T06:06:05.385Z,92.30
2019-04-05T06:08:30.730Z,90.90
2019-04-05T06:10:56.102Z,88.00
2019-04-05T06:13:21.445Z,86.30
2019-04-05T06:15:46.846Z,82.60
2019-04-05T06:18:12.801Z,82.40
2019-04-05T06:20:38.261Z,79.00
2019-04-05T06:23:03.635Z,75.60
2019-04-05T06:25:29.006Z,76.20
2019-04-05T06:27:54.354Z,75.00
2019-04-05T06:30:19.725Z,73.10
2019-04-05T06:32:45.153Z,73.00
2019-04-05T06:35:10.618Z,69.90
2019-04-05T06:37:38.132Z,69.30
2019-04-05T06:40:03.544Z,67.10
2019-04-05T06:42:28.897Z,65.20
2019-04-05T06:44:54.282Z,64.60
2019-04-05T06:47:19.625Z,67.30
2019-04-05T06:49:44.977Z,66.10
2019-04-05T06:52:10.362Z,62.40
2019-04-05T06:54:35.714Z,62.70
2019-04-05T06:57:01.473Z,59.80
2019-04-05T06:59:27.187Z,59.80
2019-04-05T07:01:52.578Z,61.90
2019-04-05T07:04:17.928Z,61.20
2019-04-05T07:06:43.266Z,58.20
2019-04-05T07:09:08.745Z,59.10
2019-04-05T07:11:34.105Z,60.20
2019-04-05T07:13:59.486Z,59.00
2019-04-05T07:16:26.306Z,57.90
2019-04-05T07:18:51.656Z,60.40
2019-04-05T07:21:17.424Z,63.40
2019-04-05T07:23:42.968Z,63.70
2019-04-05T07:26:08.435Z,61.40
2019-04-05T07:28:34.175Z,63.80
2019-04-05T07:30:59.538Z,65.90
2019-04-05T07:33:24.936Z,67.40
2019-04-05T07:35:50.258Z,66.50
2019-04-05T07:38:15.648Z,69.20
2019-04-05T07:40:40.992Z,67.00
2019-04-05T07:43:06.342Z,66.50
2019-04-05T07:45:31.787Z,68.20
2019-04-05T07:47:57.130Z,66.20
2019-04-05T07:50:22.589Z,68.40
2019-04-05T07:52:48.020Z,69.40
2019-04-05T07:55:14.573Z,71.20
2019-04-05T07:57:39.950Z,68.70
2019-04-05T08:00:08.034Z,69.90
2019-04-05T08:02:33.434Z,69.70
2019-04-05T08:04:58.782Z,71.60
2019-04-05T08:07:26.345Z,75.20
2019-04-05T08:09:52.175Z,73.60
2019-04-05T08:12:17.838Z,74.00
2019-04-05T08:14:43.369Z,76.00
2019-04-05T08:17:08.683Z,75.10
2019-04-05T08:19:34.046Z,76.30
2019-04-05T08:21:59.413Z,75.20
2019-04-05T08:24:24.761Z,75.60
2019-04-05T08:26:50.137Z,75.00
2019-04-05T08:29:15.485Z,74.60
2019-04-05T08:31:40.853Z,72.70
2019-04-05T08:34:06.276Z,70.60
2019-04-05T08:36:32.804Z,73.80
2019-04-05T08:38:58.182Z,75.40
2019-04-05T08:41:23.526Z,75.90
2019-04-05T08:43:48.902Z,73.80
2019-04-05T08:46:14.253Z,74.40
2019-04-05T08:48:39.638Z,77.40
2019-04-05T08:51:05.295Z,75.60
2019-04-05T08:53:30.707Z,74.60
2019-04-05T08:55:56.069Z,75.70
2019-04-05T08:58:32.903Z,76.90
2019-04-05T09:00:48.422Z,75.30
2019-04-05T09:03:13.804Z,77.20
2019-04-05T09:05:39.951Z,78.20
2019-04-05T09:08:05.401Z,79.60
2019-04-05T09:10:30.754Z,80.30
2019-04-05T09:12:56.202Z,79.10
2019-04-05T09:15:21.554Z,79.90
2019-04-05T09:17:46.942Z,76.50
2019-04-05T09:20:12.391Z,77.40
2019-04-05T09:22:37.731Z,76.70
2019-04-05T09:25:03.410Z,76.40
2019-04-05T09:27:28.763Z,77.00
2019-04-05T09:29:54.154Z,76.50
2019-04-05T09:32:19.538Z,78.30
2019-04-05T09:34:44.865Z,78.00
2019-04-05T09:37:11.130Z,80.00
2019-04-05T09:39:36.483Z,81.40
2019-04-05T09:42:01.840Z,82.00
2019-04-05T09:44:27.207Z,82.10
2019-04-05T09:46:52.553Z,84.10
2019-04-05T09:49:17.921Z,84.20
2019-04-05T09:51:43.270Z,83.50
2019-04-05T09:54:08.634Z,85.90
2019-04-05T09:56:34.114Z,88.10
2019-04-05T09:58:59.465Z,86.40
2019-04-05T10:01:24.845Z,87.30
2019-04-05T10:03:50.255Z,85.80
2019-04-05T10:06:17.097Z,86.00
2019-04-05T10:08:42.518Z,87.10
2019-04-05T10:11:07.870Z,88.20
2019-04-05T10:13:33.238Z,89.20
2019-04-05T10:15:58.593Z,90.00
2019-04-05T10:18:23.964Z,90.00
2019-04-05T10:20:49.318Z,90.80
2019-04-05T10:23:14.709Z,91.60
2019-04-05T10:25:43.743Z,92.00
2019-04-05T10:28:08.105Z,92.70
2019-04-05T10:30:33.469Z,92.80
2019-04-05T10:32:58.821Z,92.90
2019-04-05T10:35:24.193Z,93.10
2019-04-05T10:37:49.906Z,93.30
2019-04-05T10:40:16.295Z,93.10
2019-04-05T10:42:41.638Z,92.90
2019-04-05T10:45:09.898Z,92.40
2019-04-05T10:47:35.348Z,92.50
2019-04-05T10:50:03.439Z,92.70
2019-04-05T10:52:27.697Z,92.10
2019-04-05T10:54:53.052Z,92.40
2019-04-05T10:57:18.407Z,92.60
2019-04-05T10:59:43.846Z,93.00
2019-04-05T11:02:09.193Z,93.20
2019-04-05T11:04:34.594Z,93.10
2019-04-05T11:06:59.969Z,92.20
2019-04-05T11:09:25.334Z,92.00
2019-04-05T11:11:50.709Z,92.20
2019-04-05T11:14:16.059Z,92.00
2019-04-05T11:16:41.450Z,91.70
2019-04-05T11:19:06.810Z,92.10
2019-04-05T11:21:32.182Z,92.00
2019-04-05T11:23:57.562Z,91.90
2019-04-05T11:26:22.906Z,92.00
2019-04-05T11:28:48.651Z,92.70
2019-04-05T11:31:14.010Z,92.50
2019-04-05T11:33:39.366Z,93.30
2019-04-05T11:36:04.846Z,93.30
2019-04-05T11:38:30.693Z,93.00
2019-04-05T11:40:56.773Z,93.10
2019-04-05T11:43:26.238Z,92.90
2019-04-05T11:45:51.618Z,94.00
2019-04-05T11:48:17.077Z,93.10
2019-04-05T11:50:42.620Z,92.30
2019-04-05T11:53:08.380Z,92.50
2019-04-05T11:55:33.722Z,93.10
2019-04-05T11:57:59.105Z,91.90
2019-04-05T12:00:30.873Z,93.00
2019-04-05T12:03:02.138Z,92.30
2019-04-05T12:05:27.949Z,92.70
2019-04-05T12:07:56.304Z,92.20
2019-04-05T12:10:20.289Z,92.10
2019-04-05T12:12:45.715Z,92.90
2019-04-05T12:15:11.430Z,91.50
2019-04-05T12:17:36.810Z,91.60
2019-04-05T12:20:02.721Z,91.30
2019-04-05T12:22:29.038Z,92.10
2019-04-05T12:25:13.500Z,92.20
2019-04-05T12:27:38.873Z,91.80
2019-04-05T12:30:06.417Z,90.90
2019-04-05T12:32:34.446Z,89.90
2019-04-05T12:34:58.786Z,90.00
2019-04-05T12:37:24.134Z,90.40
2019-04-05T12:39:49.509Z,90.10
2019-04-05T12:42:15.934Z,87.40
2019-04-05T12:44:44.619Z,89.30
2019-04-05T12:47:08.281Z,90.40
2019-04-05T12:49:33.633Z,89.40
2019-04-05T12:51:59.009Z,88.30
2019-04-05T12:54:24.362Z,87.60
2019-04-05T12:56:49.795Z,87.70
2019-04-05T12:59:15.141Z,85.50
2019-04-05T13:01:40.600Z,87.80
2019-04-05T13:04:05.981Z,86.60
2019-04-05T13:06:31.681Z,84.30
2019-04-05T13:08:57.162Z,86.20
2019-04-05T13:11:25.783Z,83.00
2019-04-05T13:13:49.483Z,82.20
2019-04-05T13:16:14.858Z,83.00
2019-04-05T13:18:40.526Z,82.50
2019-04-05T13:21:14.457Z,81.30
2019-04-05T13:23:35.856Z,83.50
2019-04-05T13:26:00.937Z,83.60
2019-04-05T13:28:27.384Z,83.00
2019-04-05T13:30:55.418Z,82.00
2019-04-05T13:33:21.614Z,79.90
2019-04-05T13:35:48.423Z,83.50
2019-04-05T13:38:13.798Z,81.20
2019-04-05T13:40:39.149Z,80.10
2019-04-05T13:43:04.530Z,80.00
2019-04-05T13:45:29.871Z,80.40
2019-04-05T13:47:55.223Z,80.80
2019-04-05T13:50:20.605Z,79.80
2019-04-05T13:52:45.967Z,79.10
2019-04-05T13:55:11.983Z,82.10
2019-04-05T13:57:38.431Z,80.50
2019-04-05T14:00:04.802Z,79.00
2019-04-05T14:02:30.189Z,80.00
2019-04-05T14:04:55.602Z,77.60
2019-04-05T14:07:21.559Z,79.50
2019-04-05T14:09:49.022Z,82.80
2019-04-05T14:12:15.442Z,82.20
2019-04-05T14:14:41.520Z,83.00
2019-04-05T14:17:08.177Z,79.70
2019-04-05T14:19:33.544Z,80.80
2019-04-05T14:22:08.506Z,79.40
2019-04-05T14:24:26.237Z,79.70
2019-04-05T14:26:51.626Z,78.90
2019-04-05T14:29:17.270Z,78.10
2019-04-05T14:31:42.733Z,79.30
2019-04-05T14:34:08.430Z,78.10
2019-04-05T14:36:33.774Z,78.90
2019-04-05T14:38:59.157Z,77.30
2019-04-05T14:41:24.506Z,78.10
2019-04-05T14:43:49.914Z,77.70
2019-04-05T14:46:15.262Z,77.90
2019-04-05T14:48:40.602Z,79.30
2019-04-05T14:51:05.989Z,78.60
2019-04-05T14:53:32.273Z,77.60
2019-04-05T14:55:59.269Z,77.90
2019-04-05T14:58:25.844Z,77.00
2019-04-05T15:00:51.194Z,77.00
2019-04-05T15:03:17.138Z,77.80
2019-04-05T15:05:42.513Z,77.70
2019-04-05T15:08:07.894Z,78.30
2019-04-05T15:10:33.273Z,77.10
2019-04-05T15:13:00.225Z,76.00
2019-04-05T15:15:26.474Z,76.30
2019-04-05T15:17:52.214Z,77.90
2019-04-05T15:20:17.565Z,77.30
2019-04-05T15:22:42.938Z,76.60
2019-04-05T15:25:09.315Z,75.90
2019-04-05T15:27:34.986Z,77.10
2019-04-05T15:30:00.385Z,76.90
2019-04-05T15:32:26.793Z,77.30
2019-04-05T15:34:52.237Z,76.70
2019-04-05T15:37:17.607Z,77.00
2019-04-05T15:39:44.372Z,76.70
2019-04-05T15:42:10.041Z,75.60
2019-04-05T15:44:35.730Z,77.80
2019-04-05T15:47:01.478Z,77.20
2019-04-05T15:49:26.834Z,76.90
2019-04-05T15:51:54.496Z,74.80
2019-04-05T15:54:19.180Z,75.80
2019-04-05T15:56:44.557Z,77.30
2019-04-05T15:59:09.893Z,76.50
2019-04-05T16:01:35.637Z,76.50
2019-04-05T16:04:02.733Z,77.30
2019-04-05T16:06:28.042Z,77.60
2019-04-05T16:08:54.933Z,77.80
2019-04-05T16:11:20.651Z,78.90
2019-04-05T16:13:47.072Z,78.80
2019-04-05T16:16:12.782Z,79.20
2019-04-05T16:18:39.853Z,78.10
2019-04-05T16:21:05.392Z,79.00
2019-04-05T16:23:31.826Z,79.60
2019-04-05T16:25:57.206Z,79.20
2019-04-05T16:28:22.621Z,79.30
2019-04-05T16:30:48.347Z,79.90
2019-04-05T16:33:13.713Z,79.80
2019-04-05T16:35:39.442Z,79.80
2019-04-05T16:38:04.941Z,80.50
2019-04-05T16:40:31.644Z,79.60
2019-04-05T16:43:02.902Z,80.10
2019-04-05T16:45:24.099Z,80.00
2019-04-05T16:47:49.474Z,81.00
2019-04-05T16:50:15.021Z,80.50
2019-04-05T16:52:45.149Z,81.40
2019-04-05T16:55:07.432Z,81.80
2019-04-05T16:57:32.997Z,81.90
2019-04-05T16:59:58.351Z,82.40
2019-04-05T17:02:24.006Z,82.00
2019-04-05T17:04:49.532Z,82.10
2019-04-05T17:07:14.878Z,82.80
2019-04-05T17:09:40.302Z,83.20
2019-04-05T17:12:05.774Z,83.00
2019-04-05T17:14:31.129Z,82.80
2019-04-05T17:16:56.587Z,83.60
2019-04-05T17:19:21.953Z,85.10
2019-04-05T17:21:47.367Z,84.50
2019-04-05T17:24:12.741Z,84.90
2019-04-05T17:26:38.099Z,84.70
2019-04-05T17:29:03.891Z,86.00
2019-04-05T17:31:30.407Z,85.80
2019-04-05T17:33:55.785Z,86.80
2019-04-05T17:36:21.147Z,86.00
2019-04-05T17:38:46.523Z,86.60
2019-04-05T17:41:11.869Z,87.50
2019-04-05T17:43:37.250Z,87.40
2019-04-05T17:46:02.631Z,87.80
2019-04-05T17:48:27.993Z,88.20
2019-04-05T17:50:53.351Z,88.80
2019-04-05T17:53:18.899Z,88.30
2019-04-05T17:55:44.649Z,89.30
2019-04-05T17:58:10.677Z,89.40
2019-04-05T18:00:36.525Z,89.00
2019-04-05T18:03:01.890Z,89.70
2019-04-05T18:05:27.391Z,90.10
2019-04-05T18:07:52.753Z,89.90
2019-04-05T18:10:18.150Z,90.70
2019-04-05T18:12:43.494Z,90.40
2019-04-05T18:15:09.477Z,90.20
2019-04-05T18:17:34.889Z,90.80
2019-04-05T18:20:00.241Z,90.70
2019-04-05T18:22:25.616Z,90.70
2019-04-05T18:24:51.034Z,91.30
2019-04-05T18:27:16.427Z,91.50
2019-04-05T18:29:41.819Z,91.40
2019-04-05T18:32:07.193Z,91.70
2019-04-05T18:34:32.533Z,92.00
2019-04-05T18:36:57.899Z,92.00
2019-04-05T18:39:23.351Z,92.00
2019-04-05T18:41:48.702Z,92.00
2019-04-05T18:44:14.065Z,92.20
2019-04-05T18:46:39.442Z,92.10
2019-04-05T18:49:05.214Z,92.50
2019-04-05T18:51:30.630Z,92.10
2019-04-05T18:53:55.979Z,92.30
2019-04-05T18:56:21.375Z,92.60
2019-04-05T18:58:46.728Z,92.50
2019-04-05T19:01:12.082Z,93.10
2019-04-05T19:03:37.473Z,93.10
2019-04-05T19:06:02.977Z,93.00
2019-04-05T19:08:38.909Z,93.30
2019-04-05T19:10:55.394Z,93.40
2019-04-05T19:13:21.102Z,93.50
2019-04-05T19:15:46.853Z,93.60
2019-04-05T19:18:13.039Z,93.90
2019-04-05T19:20:38.332Z,93.90
2019-04-05T19:23:04.761Z,93.90
2019-04-05T19:25:30.167Z,94.00
2019-04-05T19:27:55.529Z,94.30
2019-04-05T19:49:58.338Z,94.50
2019-04-05T19:52:23.719Z,94.40
2019-04-05T19:54:49.070Z,94.20
2019-04-05T19:57:14.449Z,94.70
2019-04-05T19:59:39.797Z,94.60
2019-04-05T20:02:05.274Z,94.80
2019-04-05T20:04:30.618Z,94.80
2019-04-05T20:06:58.685Z,94.50
2019-04-05T20:09:23.030Z,94.60
2019-04-05T20:11:48.495Z,94.50
2019-04-05T20:14:14.906Z,94.70
2019-04-05T20:16:40.285Z,94.80
2019-04-05T20:19:05.673Z,94.90
2019-04-05T20:21:32.099Z,94.70
2019-04-05T20:23:57.592Z,94.70
2019-04-05T20:26:23.023Z,94.80
2019-04-05T20:28:48.378Z,95.00
2019-04-05T20:31:13.741Z,94.80
2019-04-05T20:33:39.094Z,95.20
2019-04-05T20:36:04.441Z,95.00
2019-04-05T20:38:29.826Z,95.10
2019-04-05T20:40:55.174Z,95.20
2019-04-05T20:43:20.613Z,95.40
2019-04-05T20:45:45.917Z,95.30
2019-04-05T20:48:11.274Z,95.30
2019-04-05T20:50:36.654Z,95.30
2019-04-05T20:53:02.003Z,95.20
2019-04-05T20:55:27.378Z,95.40
2019-04-05T20:58:11.781Z,95.30
2019-04-05T21:00:37.166Z,95.50
2019-04-05T21:03:02.745Z,95.20
2019-04-05T21:05:28.122Z,95.30
2019-04-05T21:07:53.518Z,95.10
2019-04-05T21:10:18.920Z,95.40
2019-04-05T21:12:44.270Z,95.40
2019-04-05T21:15:09.734Z,95.50
2019-04-05T21:17:35.119Z,95.40
2019-04-05T21:20:01.046Z,95.10
2019-04-05T21:22:26.423Z,95.20
2019-04-05T21:24:51.781Z,95.40
2019-04-05T21:27:17.515Z,95.30
2019-04-05T21:29:43.111Z,95.40
2019-04-05T21:32:08.451Z,95.50
2019-04-05T21:34:34.915Z,95.50
2019-04-05T21:37:00.302Z,95.70
2019-04-05T21:39:25.658Z,95.60
2019-04-05T21:41:51.004Z,95.50
2019-04-05T21:44:16.362Z,95.60
2019-04-05T21:46:41.737Z,95.50
2019-04-05T21:49:07.491Z,95.30
2019-04-05T21:51:32.865Z,95.50
2019-04-05T21:53:58.226Z,95.50
2019-04-05T21:56:24.225Z,95.40
2019-04-05T21:58:49.582Z,95.40
2019-04-05T22:01:15.054Z,95.50
2019-04-05T22:03:40.770Z,95.60
2019-04-05T22:06:06.374Z,95.40
2019-04-05T22:08:31.806Z,95.40
2019-04-05T22:10:57.170Z,95.40
2019-04-05T22:13:22.527Z,95.30
2019-04-05T22:15:47.918Z,95.40
2019-04-05T22:18:13.271Z,95.00
2019-04-05T22:20:38.637Z,95.50
2019-04-05T22:23:03.993Z,94.90
2019-04-05T22:25:29.371Z,94.80
2019-04-05T22:27:54.721Z,94.80
2019-04-05T22:30:20.117Z,95.00
2019-04-05T22:32:45.457Z,94.80
2019-04-05T22:35:10.804Z,94.50
2019-04-05T22:37:36.202Z,94.90
2019-04-05T22:40:20.596Z,95.50
2019-04-05T22:42:45.967Z,95.20
2019-04-05T22:45:11.722Z,95.80
2019-04-05T22:47:37.108Z,95.30
2019-04-05T22:50:02.470Z,95.50
2019-04-05T22:52:27.905Z,94.90
2019-04-05T22:54:53.261Z,94.90
2019-04-05T22:57:18.986Z,95.10
2019-04-05T22:59:44.410Z,95.50
2019-04-05T23:02:09.886Z,95.20
2019-04-05T23:04:35.241Z,95.20
2019-04-05T23:07:00.589Z,95.40
2019-04-05T23:09:26.020Z,95.20
2019-04-05T23:11:51.350Z,96.10
2019-04-05T23:14:16.729Z,95.40
2019-04-05T23:16:42.087Z,95.80
2019-04-05T23:19:07.465Z,96.30
2019-04-05T23:21:32.825Z,96.50
2019-04-05T23:23:58.170Z,96.10
2019-04-05T23:26:23.597Z,95.70
2019-04-05T23:28:48.945Z,96.40
2019-04-05T23:31:14.338Z,96.40
2019-04-05T23:33:39.688Z,96.20
2019-04-05T23:36:05.193Z,96.30
2019-04-05T23:38:30.549Z,96.70
2019-04-05T23:40:55.933Z,96.20
2019-04-05T23:43:21.403Z,96.10
2019-04-05T23:45:46.770Z,96.50
2019-04-05T23:48:12.146Z,96.10
2019-04-05T23:50:37.507Z,96.10
2019-04-05T23:53:02.878Z,96.30
2019-04-05T23:55:33.087Z,96.40
2019-04-05T23:57:55.240Z,96.40
